KCON/CON METAR and TAF weather

Enter ICAO airport designator
Station Type Date Time Source
KCON METAR 2018/10/21 03:51 UTC NOAA

KCON 210351Z AUTO 00000KT 10SM CLR 02/01 A2958 RMK AO2 SLP018 T00220006


Station Type Date Time Source
KCON Decoded METAR 2018/10/21 03:51 UTC NOAA

Concord, Concord Municipal Airport, NH, United States (KCON) 43-11-43N 071-30-04W 103M
Oct 20, 2018 - 11:51 PM EDT / 2018.10.21 0351 UTC
Wind: Calm:0
Visibility: 10 mile(s):0
Sky conditions: clear
Temperature: 36.0 F (2.2 C)
Dew Point: 33.1 F (0.6 C)
Relative Humidity: 89%
Pressure (altimeter): 29.58 in. Hg (1001 hPa)
ob: KCON 210351Z AUTO 00000KT 10SM CLR 02/01 A2958 RMK AO2 SLP018 T00220006
cycle: 4

Station Type Date Time Source
KCON TAF 2018/10/21 04:39 UTC NOAA

TAF
AMD KCON 210336Z 2104/2124 00000KT P6SM SCT050 SCT100
FM211000 31010KT P6SM SCT050 BKN080
FM211500 31018G27KT P6SM FEW250


Example: see airport list